Time;durP1;ratioP1;P1;durP2;ratioP2;P2;SDS_P1;SDS_P2;PMS_P1;PMS_P2;Temp;Humidity;BMP_temperature;BMP_pressure;BME280_temperature;BME280_humidity;BME280_pressure;Samples;Min_cycle;Max_cycle;Signal;HPM_P1;HPM_P2
2022/03/07 00:00:59;;;;;;;15.38;4.82;;;;;;;4.06;57.52;102905.03;5170345;28;20918;-53
2022/03/07 00:03:32;;;;;;;13.25;5.00;;;;;;;4.13;57.48;102916.09;5174094;28;20421;-53
2022/03/07 00:06:05;;;;;;;15.37;5.73;;;;;;;4.15;57.40;102919.53;5176798;28;20422;-51
2022/03/07 00:08:38;;;;;;;13.38;5.03;;;;;;;4.14;57.54;102915.19;5169738;28;20421;-48
2022/03/07 00:11:12;;;;;;;14.02;5.05;;;;;;;4.11;57.62;102918.75;5173532;28;20435;-50
2022/03/07 00:13:45;;;;;;;12.30;4.47;;;;;;;4.12;57.71;102919.63;5169417;28;20405;-51
2022/03/07 00:16:18;;;;;;;14.93;5.03;;;;;;;4.09;57.65;102920.59;5173235;28;20411;-51
2022/03/07 00:18:51;;;;;;;10.73;4.50;;;;;;;4.07;57.81;102917.16;5178188;28;20504;-48
2022/03/07 00:21:24;;;;;;;15.70;5.15;;;;;;;4.03;57.52;102925.19;5171474;28;20409;-51
2022/03/07 00:23:57;;;;;;;13.98;6.10;;;;;;;4.02;57.83;102940.00;5168769;28;20859;-46
2022/03/07 00:26:31;;;;;;;13.85;4.93;;;;;;;4.01;57.66;102925.25;5170207;28;20419;-50
2022/03/07 00:29:03;;;;;;;17.98;5.05;;;;;;;4.02;57.57;102929.56;5178816;28;20399;-47
2022/03/07 00:31:36;;;;;;;14.40;5.07;;;;;;;3.98;57.65;102922.75;5150058;28;20444;-46
2022/03/07 00:34:08;;;;;;;10.73;4.53;;;;;;;3.75;57.71;102926.19;5176519;28;20941;-47
2022/03/07 00:36:41;;;;;;;12.10;5.43;;;;;;;3.93;57.82;102919.44;5170290;28;20500;-46
2022/03/07 00:39:13;;;;;;;13.07;5.43;;;;;;;3.96;57.64;102935.00;5170123;28;20516;-51
2022/03/07 00:41:47;;;;;;;19.50;4.43;;;;;;;3.95;57.64;102938.53;5170939;28;20518;-47
2022/03/07 00:44:19;;;;;;;11.32;4.43;;;;;;;3.88;57.75;102930.06;5174256;28;20936;-47
2022/03/07 00:46:52;;;;;;;14.23;6.00;;;;;;;3.86;57.73;102925.78;5174506;28;20518;-49
2022/03/07 00:49:24;;;;;;;10.82;4.68;;;;;;;3.75;58.10;102918.34;5176143;28;20426;-49
2022/03/07 00:51:58;;;;;;;13.27;4.22;;;;;;;3.83;57.83;102938.97;5180042;28;20920;-49
2022/03/07 00:54:30;;;;;;;11.40;5.00;;;;;;;3.80;58.13;102946.91;5174596;28;20411;-47
2022/03/07 00:57:04;;;;;;;12.20;5.78;;;;;;;3.73;58.03;102948.06;5178140;28;20439;-49
2022/03/07 00:59:37;;;;;;;15.43;5.45;;;;;;;3.61;58.11;102934.50;5175070;28;20417;-46
2022/03/07 01:02:10;;;;;;;12.83;5.20;;;;;;;3.61;58.24;102939.72;5167427;28;20401;-48
2022/03/07 01:04:42;;;;;;;14.93;4.72;;;;;;;3.62;58.34;102944.06;5176630;28;20423;-46
2022/03/07 01:07:15;;;;;;;14.25;5.47;;;;;;;3.61;58.02;102950.19;5179663;28;20810;-46
2022/03/07 01:09:47;;;;;;;15.85;4.50;;;;;;;3.52;58.52;102933.97;5169844;28;20461;-49
2022/03/07 01:12:21;;;;;;;13.27;5.20;;;;;;;3.28;58.20;102920.81;5176853;28;20543;-47
2022/03/07 01:14:54;;;;;;;15.82;5.00;;;;;;;3.54;58.43;102958.28;5171685;28;20427;-48
2022/03/07 01:17:26;;;;;;;13.63;4.38;;;;;;;3.41;58.47;102936.97;5171671;28;20499;-51
2022/03/07 01:19:59;;;;;;;10.80;4.50;;;;;;;3.40;58.31;102935.22;5175547;28;20430;-53
2022/03/07 01:22:31;;;;;;;12.20;5.38;;;;;;;3.47;58.31;102953.28;5171218;28;20499;-49
2022/03/07 01:25:06;;;;;;;14.50;5.38;;;;;;;3.45;58.47;102957.69;5182684;28;20483;-49
2022/03/07 01:27:40;;;;;;;10.60;5.05;;;;;;;3.40;58.13;102956.13;5176438;28;20456;-47
2022/03/07 01:30:12;;;;;;;15.15;5.55;;;;;;;3.38;58.38;102957.97;5168731;28;20483;-47
2022/03/07 01:32:45;;;;;;;13.27;5.27;;;;;;;3.34;58.13;102957.19;5177607;28;20401;-48
2022/03/07 01:35:17;;;;;;;10.80;5.38;;;;;;;3.34;58.17;102949.34;5177662;28;20439;-48
2022/03/07 01:37:49;;;;;;;13.15;5.57;;;;;;;3.33;58.41;102954.63;5171183;28;20437;-49
2022/03/07 01:40:22;;;;;;;19.67;5.67;;;;;;;3.31;58.59;102951.22;5176632;28;20495;-51
2022/03/07 01:42:56;;;;;;;13.45;5.88;;;;;;;3.29;58.49;102955.66;5174217;28;20974;-52
2022/03/07 01:45:28;;;;;;;15.63;6.28;;;;;;;3.31;58.65;102951.22;5176550;28;20430;-49
2022/03/07 01:48:01;;;;;;;15.48;5.78;;;;;;;3.34;58.54;102956.31;5171503;28;20462;-47
2022/03/07 01:50:34;;;;;;;9.95;5.38;;;;;;;3.24;58.73;102933.13;5175139;28;20769;-47
2022/03/07 01:53:06;;;;;;;15.68;6.13;;;;;;;3.37;58.41;102940.56;5172401;28;20423;-48
2022/03/07 01:55:39;;;;;;;13.55;5.97;;;;;;;3.38;58.65;102942.28;5181289;28;20421;-51
2022/03/07 01:58:13;;;;;;;13.30;5.63;;;;;;;3.39;58.55;102944.81;5171072;28;20835;-48
2022/03/07 02:00:47;;;;;;;12.80;4.40;;;;;;;3.42;58.74;102936.88;5169844;28;20486;-54
2022/03/07 02:03:19;;;;;;;13.63;5.85;;;;;;;3.44;58.52;102942.06;5176008;28;20787;-50
2022/03/07 02:05:52;;;;;;;14.52;5.82;;;;;;;3.45;58.64;102934.19;5172663;28;20422;-57
2022/03/07 02:08:25;;;;;;;12.88;4.95;;;;;;;3.46;58.87;102945.47;5172531;28;20430;-49
2022/03/07 02:10:57;;;;;;;12.68;5.20;;;;;;;3.49;58.84;102944.53;5173237;28;20849;-47
2022/03/07 02:13:31;;;;;;;12.80;5.20;;;;;;;3.52;58.57;102940.03;5174318;28;20421;-47
2022/03/07 02:16:04;;;;;;;16.73;6.10;;;;;;;3.40;58.74;102914.34;5176896;28;20479;-46
2022/03/07 02:18:37;;;;;;;16.27;5.38;;;;;;;3.59;58.89;102944.16;5175166;28;20437;-57
2022/03/07 02:21:11;;;;;;;10.30;4.53;;;;;;;3.61;59.04;102939.72;5172694;28;20429;-48
2022/03/07 02:23:46;;;;;;;14.10;5.97;;;;;;;3.62;59.05;102936.22;5171456;28;20515;-46
2022/03/07 02:26:20;;;;;;;13.02;4.88;;;;;;;3.64;58.94;102934.38;5176814;28;20828;-51
2022/03/07 02:28:52;;;;;;;11.88;5.10;;;;;;;3.69;58.95;102937.72;5173093;28;20520;-47
2022/03/07 02:31:25;;;;;;;13.15;5.13;;;;;;;3.62;59.00;102920.53;5175382;28;20507;-51
2022/03/07 02:33:58;;;;;;;9.13;4.75;;;;;;;3.73;58.84;102937.59;5177215;28;20420;-46
2022/03/07 02:36:30;;;;;;;18.27;5.70;;;;;;;3.78;59.08;102931.31;5174091;28;20508;-47
2022/03/07 02:39:05;;;;;;;11.52;5.43;;;;;;;3.83;59.28;102923.28;5172691;28;20496;-50
2022/03/07 02:41:38;;;;;;;14.40;4.90;;;;;;;3.81;59.18;102925.09;5172928;28;20415;-46
2022/03/07 02:44:11;;;;;;;10.55;5.20;;;;;;;3.82;59.00;102919.81;5165919;28;20484;-47
2022/03/07 02:46:44;;;;;;;15.43;5.65;;;;;;;3.84;59.02;102920.63;5168746;28;20462;-47
2022/03/07 02:49:17;;;;;;;9.05;4.82;;;;;;;3.83;59.46;102918.91;5171388;28;20421;-47
2022/03/07 02:51:49;;;;;;;12.10;4.97;;;;;;;3.69;59.21;102893.28;5168217;28;20433;-47
2022/03/07 02:54:23;;;;;;;12.82;5.60;;;;;;;3.85;59.44;102911.03;5173694;28;20450;-49
2022/03/07 02:56:56;;;;;;;7.03;5.45;;;;;;;3.84;59.42;102909.31;5176677;28;20515;-48
2022/03/07 02:59:31;;;;;;;10.32;5.25;;;;;;;3.85;59.31;102913.63;5168936;28;20904;-50
2022/03/07 03:02:04;;;;;;;12.20;5.27;;;;;;;3.83;59.08;102916.28;5178632;28;20530;-52
2022/03/07 03:04:36;;;;;;;10.60;5.97;;;;;;;3.81;59.52;102909.41;5175448;28;20469;-47
2022/03/07 03:07:09;;;;;;;11.32;4.95;;;;;;;3.81;59.25;102914.63;5171801;28;20467;-50
2022/03/07 03:09:45;;;;;;;7.20;4.67;;;;;;;3.75;59.36;102899.19;5172863;28;20744;-51
2022/03/07 03:12:19;;;;;;;9.57;5.20;;;;;;;3.86;59.41;102917.94;5168325;28;20432;-47
2022/03/07 03:14:51;;;;;;;12.57;4.95;;;;;;;3.84;59.27;102915.41;5166945;28;20487;-46
2022/03/07 03:17:24;;;;;;;10.55;5.38;;;;;;;3.84;59.16;102906.69;5176597;28;20502;-48
2022/03/07 03:19:57;;;;;;;15.52;5.05;;;;;;;3.82;59.35;102906.75;5173220;28;20472;-50
2022/03/07 03:22:29;;;;;;;12.55;5.30;;;;;;;3.80;59.56;102907.72;5169488;28;20412;-49
2022/03/07 03:25:03;;;;;;;9.90;5.40;;;;;;;3.76;59.55;102900.91;5177447;28;20772;-50
2022/03/07 03:27:36;;;;;;;10.00;4.95;;;;;;;3.71;59.55;102908.91;5169843;28;20440;-48
2022/03/07 03:30:12;;;;;;;22.52;5.80;;;;;;;3.65;59.39;102902.16;5170990;28;20509;-46
2022/03/07 03:32:44;;;;;;;11.25;5.40;;;;;;;3.61;59.39;102912.75;5173050;28;20411;-48
2022/03/07 03:35:17;;;;;;;13.45;5.53;;;;;;;3.54;59.34;102911.25;5171189;28;20511;-48
2022/03/07 03:37:49;;;;;;;13.70;5.40;;;;;;;3.46;59.45;102908.91;5170519;28;20873;-52
2022/03/07 03:40:23;;;;;;;14.15;5.30;;;;;;;3.42;59.40;102896.84;5170670;28;20426;-49
2022/03/07 03:42:56;;;;;;;14.43;6.43;;;;;;;3.37;59.82;102906.59;5168720;28;20448;-50
2022/03/07 03:45:29;;;;;;;9.15;5.13;;;;;;;3.34;59.71;102898.88;5169979;28;20433;-47
2022/03/07 03:48:02;;;;;;;10.93;4.85;;;;;;;3.31;59.82;102899.81;5174239;28;20415;-48
2022/03/07 03:50:34;;;;;;;12.70;5.77;;;;;;;3.27;59.73;102895.63;5174477;28;20502;-48
2022/03/07 03:53:07;;;;;;;12.80;6.30;;;;;;;3.20;59.32;102896.75;5168496;28;20464;-47
2022/03/07 03:55:40;;;;;;;13.45;6.80;;;;;;;3.13;59.67;102892.63;5174688;28;20863;-47
2022/03/07 03:58:13;;;;;;;11.32;5.53;;;;;;;3.12;59.91;102899.59;5171276;28;20419;-49
2022/03/07 04:00:45;;;;;;;13.00;5.75;;;;;;;3.08;59.75;102902.38;5176261;28;20860;-50
2022/03/07 04:03:18;;;;;;;9.77;6.53;;;;;;;3.07;59.74;102901.53;5174193;28;20763;-53
2022/03/07 04:05:50;;;;;;;18.58;7.38;;;;;;;3.04;59.97;102896.41;5167125;28;20516;-52
2022/03/07 04:08:28;;;;;;;9.73;5.65;;;;;;;3.02;59.62;102892.97;5170830;28;20498;-51
2022/03/07 04:11:01;;;;;;;9.10;5.97;;;;;;;2.97;60.03;102895.75;5167601;28;20503;-51
2022/03/07 04:13:34;;;;;;;16.92;6.50;;;;;;;2.92;59.94;102902.03;5172403;28;20773;-49
2022/03/07 04:16:06;;;;;;;11.18;6.43;;;;;;;2.87;59.96;102901.31;5175579;28;21076;-49
2022/03/07 04:18:39;;;;;;;14.10;6.68;;;;;;;2.72;59.97;102880.00;5172383;28;20490;-49
2022/03/07 04:21:11;;;;;;;15.13;5.82;;;;;;;2.79;59.70;102901.56;5165621;28;20435;-49
2022/03/07 04:23:43;;;;;;;14.77;6.35;;;;;;;2.76;59.76;102897.28;5172910;28;20504;-50
2022/03/07 04:26:17;;;;;;;13.30;6.20;;;;;;;2.70;60.17;102897.47;5171309;28;20455;-47
2022/03/07 04:28:50;;;;;;;13.98;8.05;;;;;;;2.70;59.91;102902.69;5171401;28;20429;-47
2022/03/07 04:31:22;;;;;;;14.15;7.70;;;;;;;2.69;60.08;102906.19;5169020;28;20425;-46
2022/03/07 04:33:55;;;;;;;11.35;6.38;;;;;;;2.64;60.11;102892.47;5174865;28;20419;-48
2022/03/07 04:36:27;;;;;;;12.77;7.25;;;;;;;2.60;60.26;102895.19;5170404;28;20987;-52
2022/03/07 04:39:00;;;;;;;12.95;6.80;;;;;;;2.54;60.09;102898.88;5172470;28;24605;-46
2022/03/07 04:41:35;;;;;;;13.65;7.40;;;;;;;2.51;59.96;102899.81;5171494;28;20437;-47
2022/03/07 04:44:08;;;;;;;11.20;6.60;;;;;;;2.48;60.41;102906.88;5171269;28;20438;-48
2022/03/07 04:46:41;;;;;;;11.63;5.95;;;;;;;2.24;60.27;102866.75;5174020;28;20454;-47
2022/03/07 04:49:13;;;;;;;14.02;7.15;;;;;;;2.42;60.12;102904.47;5172241;28;20425;-46
2022/03/07 04:51:46;;;;;;;14.52;7.25;;;;;;;2.39;60.22;102902.78;5174927;28;20489;-47
2022/03/07 04:54:19;;;;;;;15.70;8.10;;;;;;;2.35;60.14;102903.75;5169117;28;20447;-46
2022/03/07 04:56:54;;;;;;;30.77;13.80;;;;;;;2.32;60.23;102906.47;5171825;28;20554;-48
2022/03/07 04:59:27;;;;;;;17.63;7.10;;;;;;;2.28;60.26;102905.69;5172098;28;20426;-51
2022/03/07 05:01:59;;;;;;;13.73;6.60;;;;;;;2.25;60.16;102902.34;5173445;28;20424;-50
2022/03/07 05:04:32;;;;;;;12.48;8.13;;;;;;;2.24;60.58;102917.13;5171720;28;20436;-48
2022/03/07 05:07:04;;;;;;;16.98;7.35;;;;;;;2.23;60.23;102918.03;5170438;28;20839;-46
2022/03/07 05:09:37;;;;;;;13.68;6.93;;;;;;;2.21;60.32;102918.97;5173384;28;20486;-46
2022/03/07 05:12:11;;;;;;;18.25;7.38;;;;;;;2.26;60.66;102923.16;5171393;28;20455;-47
2022/03/07 05:14:44;;;;;;;14.57;8.25;;;;;;;2.21;60.60;102914.63;5175792;28;20769;-47
2022/03/07 05:17:16;;;;;;;19.65;8.02;;;;;;;2.31;60.42;102916.03;5176626;28;20433;-47
2022/03/07 05:19:49;;;;;;;18.83;7.60;;;;;;;2.35;60.66;102921.16;5175671;28;20826;-47
2022/03/07 05:22:21;;;;;;;19.58;8.35;;;;;;;2.36;60.37;102923.75;5180125;28;20419;-48
2022/03/07 05:24:54;;;;;;;14.05;8.65;;;;;;;2.38;60.58;102916.72;5172884;28;20427;-51
2022/03/07 05:27:27;;;;;;;11.65;8.02;;;;;;;2.39;60.45;102907.16;5172949;28;20433;-52
2022/03/07 05:30:00;;;;;;;12.65;7.10;;;;;;;2.42;60.83;102907.06;5178973;28;22055;-50
2022/03/07 05:32:32;;;;;;;18.17;7.55;;;;;;;2.45;60.67;102920.00;5174658;28;20484;-48
2022/03/07 05:35:06;;;;;;;12.65;7.53;;;;;;;2.52;60.67;102927.59;5170026;28;20437;-49
2022/03/07 05:37:40;;;;;;;15.48;7.75;;;;;;;2.55;60.74;102934.47;5177635;28;20424;-50
2022/03/07 05:40:14;;;;;;;15.27;7.68;;;;;;;2.59;60.80;102936.09;5175858;28;20407;-53
2022/03/07 05:42:48;;;;;;;20.52;10.00;;;;;;;2.62;60.54;102938.59;5174809;28;20501;-50
2022/03/07 05:45:20;;;;;;;19.85;9.95;;;;;;;2.68;60.98;102941.03;5178073;28;20446;-51
2022/03/07 05:47:53;;;;;;;18.92;10.35;;;;;;;2.72;60.57;102940.00;5173585;28;20783;-49
2022/03/07 05:50:26;;;;;;;22.55;11.88;;;;;;;2.75;60.73;102941.69;5177403;28;20421;-49
2022/03/07 05:52:58;;;;;;;18.38;13.05;;;;;;;2.78;60.89;102941.59;5176413;28;20504;-47
2022/03/07 05:55:31;;;;;;;23.35;12.90;;;;;;;2.81;60.74;102945.84;5173603;28;20464;-49
2022/03/07 05:58:04;;;;;;;20.63;13.70;;;;;;;2.83;61.12;102944.06;5175933;28;20447;-47
2022/03/07 06:00:37;;;;;;;24.87;13.57;;;;;;;2.71;61.01;102920.06;5176539;28;20527;-50
2022/03/07 06:03:10;;;;;;;19.92;13.90;;;;;;;2.90;61.07;102945.56;5173473;28;20502;-52
2022/03/07 06:05:42;;;;;;;21.38;13.48;;;;;;;2.03;60.94;102801.31;5167128;28;20534;-52
2022/03/07 06:08:15;;;;;;;16.97;12.90;;;;;;;2.85;60.86;102926.59;5176652;28;20872;-50
2022/03/07 06:10:48;;;;;;;19.30;13.27;;;;;;;2.99;60.83;102960.94;5163542;28;20573;-53
2022/03/07 06:13:22;;;;;;;21.27;13.95;;;;;;;3.02;61.20;102949.56;5170628;28;20431;-54
2022/03/07 06:15:55;;;;;;;21.40;13.90;;;;;;;3.01;61.15;102959.16;5177465;28;20472;-51
2022/03/07 06:18:27;;;;;;;18.85;14.07;;;;;;;3.08;61.02;102950.22;5170138;28;20508;-48
2022/03/07 06:21:03;;;;;;;18.75;12.70;;;;;;;3.08;61.06;102950.22;5173596;28;20422;-48
2022/03/07 06:23:36;;;;;;;19.83;13.98;;;;;;;3.15;60.98;102956.09;5177440;28;20421;-49
2022/03/07 06:26:09;;;;;;;20.35;12.38;;;;;;;3.17;61.29;102955.13;5168132;28;20424;-50
2022/03/07 06:28:45;;;;;;;19.58;13.65;;;;;;;3.18;61.39;102951.59;5150516;28;20435;-49
2022/03/07 06:31:18;;;;;;;18.33;13.68;;;;;;;3.09;61.10;102941.47;5166394;28;20415;-47
2022/03/07 06:33:50;;;;;;;17.10;13.25;;;;;;;3.19;61.31;102950.72;5173266;28;20774;-51
2022/03/07 06:36:23;;;;;;;23.20;13.63;;;;;;;3.20;61.04;102955.03;5172004;28;20897;-48
2022/03/07 06:38:56;;;;;;;23.73;16.00;;;;;;;3.21;61.27;102956.72;5168277;28;20503;-48
2022/03/07 06:41:28;;;;;;;23.58;14.75;;;;;;;3.20;61.35;102955.03;5171704;28;20940;-46
2022/03/07 06:44:02;;;;;;;20.80;14.50;;;;;;;3.22;61.28;102962.81;5169992;28;20507;-49
2022/03/07 06:46:34;;;;;;;23.70;16.00;;;;;;;3.20;61.32;102956.78;5168714;28;20427;-48
2022/03/07 06:49:07;;;;;;;24.65;15.48;;;;;;;3.21;61.36;102959.34;5168939;28;20425;-49
2022/03/07 06:51:40;;;;;;;23.08;16.40;;;;;;;3.21;61.63;102958.50;5166498;28;20414;-48
2022/03/07 06:54:13;;;;;;;24.10;16.90;;;;;;;3.22;61.67;102963.69;5172748;28;20419;-55
2022/03/07 06:56:45;;;;;;;21.30;16.27;;;;;;;3.23;61.40;102957.53;5171092;28;20456;-48
2022/03/07 06:59:19;;;;;;;22.10;15.67;;;;;;;3.27;61.39;102965.28;5172694;28;20480;-48
2022/03/07 07:01:52;;;;;;;20.17;16.43;;;;;;;3.23;61.60;102954.09;5168505;28;20487;-48
2022/03/07 07:04:24;;;;;;;20.63;16.52;;;;;;;3.27;61.50;102950.47;5164455;28;20429;-46
2022/03/07 07:06:57;;;;;;;23.07;16.87;;;;;;;3.32;61.60;102952.94;5172496;28;20438;-49
2022/03/07 07:09:29;;;;;;;23.98;17.38;;;;;;;3.35;61.60;102955.44;5168382;28;20435;-49
2022/03/07 07:12:02;;;;;;;25.55;16.50;;;;;;;3.17;61.51;102955.13;5173361;28;20502;-51
2022/03/07 07:14:36;;;;;;;23.67;17.25;;;;;;;3.46;61.52;102959.38;5166197;28;20417;-50
2022/03/07 07:17:09;;;;;;;24.33;18.53;;;;;;;3.49;61.57;102963.66;5165485;28;20412;-49
2022/03/07 07:19:41;;;;;;;20.77;15.45;;;;;;;3.55;61.43;102965.22;5164910;28;20520;-52
2022/03/07 07:22:15;;;;;;;20.60;16.57;;;;;;;3.59;61.44;102972.03;5168213;28;20435;-52
2022/03/07 07:24:48;;;;;;;21.48;15.93;;;;;;;4.09;61.39;102966.81;5170184;28;20432;-53
2022/03/07 07:27:21;;;;;;;18.67;13.45;;;;;;;5.32;60.32;102942.78;5165894;28;20909;-50
2022/03/07 07:29:54;;;;;;;18.80;12.60;;;;;;;6.75;58.68;102962.72;5167163;28;20407;-53
2022/03/07 07:32:28;;;;;;;18.45;13.07;;;;;;;7.70;58.12;102963.25;5167841;28;20528;-55
2022/03/07 07:35:00;;;;;;;13.30;9.95;;;;;;;8.81;57.20;102965.25;5170613;28;20413;-51
2022/03/07 07:37:33;;;;;;;13.82;8.68;;;;;;;9.79;56.71;102970.09;5162807;28;20492;-51
2022/03/07 07:40:08;;;;;;;13.00;7.63;;;;;;;10.75;56.00;102971.19;5167665;28;20459;-54
2022/03/07 07:42:40;;;;;;;8.35;6.93;;;;;;;11.51;55.22;102963.47;5168143;28;20469;-51
2022/03/07 07:45:14;;;;;;;14.98;7.00;;;;;;;12.46;54.50;102966.63;5162762;28;20417;-50
2022/03/07 07:47:47;;;;;;;10.15;6.72;;;;;;;13.45;53.51;102968.22;5166260;28;20440;-49
2022/03/07 07:50:19;;;;;;;11.45;6.43;;;;;;;14.37;52.36;102974.31;5174566;28;20427;-49
2022/03/07 07:52:52;;;;;;;9.82;6.03;;;;;;;15.15;51.29;102970.66;5168571;28;20978;-49
2022/03/07 07:55:25;;;;;;;9.57;6.05;;;;;;;15.78;50.24;102965.38;5169031;28;20455;-50
2022/03/07 07:57:57;;;;;;;9.48;5.82;;;;;;;15.88;49.60;102971.59;5165969;28;20560;-48
2022/03/07 08:00:31;;;;;;;9.07;5.90;;;;;;;15.89;49.39;102973.28;5172919;28;20520;-52
2022/03/07 08:03:04;;;;;;;11.17;5.07;;;;;;;15.84;49.20;102970.16;5175087;28;20407;-53
2022/03/07 08:05:36;;;;;;;8.47;5.57;;;;;;;16.08;48.19;102976.03;5178739;28;20481;-54
2022/03/07 08:08:09;;;;;;;10.37;5.53;;;;;;;16.25;47.68;102971.03;5177305;28;20490;-54
2022/03/07 08:10:41;;;;;;;8.90;5.35;;;;;;;16.48;47.14;102975.19;5168698;28;20966;-53
2022/03/07 08:13:14;;;;;;;7.90;4.95;;;;;;;16.56;46.79;102967.34;5179785;28;20826;-52
2022/03/07 08:15:47;;;;;;;9.13;4.97;;;;;;;16.92;46.00;102973.03;5166911;28;20440;-54
2022/03/07 08:18:20;;;;;;;9.73;5.00;;;;;;;17.08;45.36;102977.00;5169542;28;20448;-52
2022/03/07 08:20:56;;;;;;;12.52;5.57;;;;;;;16.85;44.70;102961.25;5168048;28;20424;-53
2022/03/07 08:23:28;;;;;;;9.80;5.43;;;;;;;17.11;44.43;102976.72;5169127;28;20453;-50
2022/03/07 08:26:01;;;;;;;8.05;5.47;;;;;;;17.25;44.02;102977.13;5170587;28;20828;-58
2022/03/07 08:28:33;;;;;;;8.10;5.20;;;;;;;17.51;43.37;102979.19;5168410;28;20419;-49
2022/03/07 08:31:07;;;;;;;8.25;5.50;;;;;;;17.74;42.55;102977.03;5165534;28;20436;-52
2022/03/07 08:33:40;;;;;;;7.60;5.88;;;;;;;18.14;41.76;102991.97;5167468;28;20419;-53
2022/03/07 08:36:12;;;;;;;8.00;5.45;;;;;;;18.30;41.16;102978.84;5160899;28;20442;-55
2022/03/07 08:38:45;;;;;;;9.90;5.60;;;;;;;18.48;41.04;102978.84;5164323;28;20527;-47
2022/03/07 08:41:17;;;;;;;8.57;5.15;;;;;;;18.70;40.47;102988.28;5165807;28;20430;-50
2022/03/07 08:43:51;;;;;;;9.95;6.13;;;;;;;18.96;40.11;102982.25;5165926;28;20424;-48
2022/03/07 08:46:25;;;;;;;7.60;5.85;;;;;;;18.49;39.81;102952.94;5166694;28;20844;-52
2022/03/07 08:48:57;;;;;;;8.90;5.00;;;;;;;18.75;39.50;102964.63;5168791;28;20490;-52
2022/03/07 08:51:30;;;;;;;8.63;5.47;;;;;;;18.95;38.89;102975.19;5169063;28;20432;-52
2022/03/07 08:54:02;;;;;;;8.70;5.13;;;;;;;18.82;38.40;102976.41;5170782;28;20411;-48
2022/03/07 08:56:35;;;;;;;11.10;5.28;;;;;;;18.83;38.22;102971.91;5172230;28;20422;-52
2022/03/07 08:59:07;;;;;;;8.98;5.32;;;;;;;18.89;37.76;102940.03;5164535;28;20443;-51
2022/03/07 09:01:41;;;;;;;7.78;5.40;;;;;;;19.42;37.09;102973.09;5170633;28;20424;-52
2022/03/07 09:04:13;;;;;;;9.20;5.03;;;;;;;19.73;36.64;102973.50;5157921;28;20413;-50
2022/03/07 09:06:46;;;;;;;10.27;5.90;;;;;;;19.77;36.45;102974.84;5173392;28;20668;-53
2022/03/07 09:09:19;;;;;;;9.15;5.25;;;;;;;19.54;36.45;102976.34;5169351;28;20435;-53
2022/03/07 09:11:51;;;;;;;7.05;5.68;;;;;;;19.11;36.93;102975.34;5170019;28;20564;-51
2022/03/07 09:14:24;;;;;;;9.43;5.30;;;;;;;18.67;37.18;102968.06;5171418;28;20534;-53
2022/03/07 09:16:59;;;;;;;9.10;5.40;;;;;;;18.30;37.63;102962.78;5171823;28;20546;-51
2022/03/07 09:19:32;;;;;;;6.18;5.13;;;;;;;18.14;37.94;102962.56;5180503;28;20416;-52
2022/03/07 09:22:05;;;;;;;7.88;5.25;;;;;;;17.69;38.03;102931.22;5172550;28;20515;-50
2022/03/07 09:24:37;;;;;;;9.10;5.32;;;;;;;17.53;38.55;102966.56;5171396;28;20530;-49
2022/03/07 09:27:09;;;;;;;7.30;5.40;;;;;;;16.87;39.13;102956.59;5169112;28;20458;-46
2022/03/07 09:29:42;;;;;;;10.70;5.18;;;;;;;16.64;39.62;102963.16;5165791;28;20428;-49
2022/03/07 09:32:16;;;;;;;7.32;4.85;;;;;;;16.34;39.90;102962.22;5174760;28;20786;-52
2022/03/07 09:34:48;;;;;;;6.93;5.28;;;;;;;15.92;40.47;102954.38;5171599;28;20854;-47
2022/03/07 09:37:21;;;;;;;7.67;4.53;;;;;;;15.60;40.80;102957.94;5169961;28;20432;-52
2022/03/07 09:39:54;;;;;;;7.10;5.15;;;;;;;14.96;41.56;102958.03;5173986;28;20523;-49
2022/03/07 09:42:27;;;;;;;7.38;5.03;;;;;;;14.22;42.43;102958.66;5178791;28;20582;-51
2022/03/07 09:45:00;;;;;;;7.22;5.22;;;;;;;13.58;42.76;102955.72;5169742;28;20967;-51
2022/03/07 09:47:37;;;;;;;8.95;6.03;;;;;;;13.11;43.10;102950.34;5175601;28;21016;-52
2022/03/07 09:50:10;;;;;;;8.90;5.95;;;;;;;12.61;43.36;102951.44;5173229;28;20491;-50
2022/03/07 09:52:45;;;;;;;7.97;5.77;;;;;;;11.96;43.69;102916.28;5167930;28;20540;-49
2022/03/07 09:55:19;;;;;;;8.07;5.65;;;;;;;11.73;43.54;102940.81;5172664;28;20421;-50
2022/03/07 09:57:51;;;;;;;10.18;6.25;;;;;;;11.47;43.61;102940.81;5169020;28;20576;-46
2022/03/07 10:00:24;;;;;;;9.73;6.40;;;;;;;11.17;43.66;102935.78;5174139;28;20499;-49
2022/03/07 10:03:04;;;;;;;7.85;6.53;;;;;;;10.86;43.44;102955.47;5172006;28;20492;-55
2022/03/07 10:05:38;;;;;;;11.30;7.47;;;;;;;10.66;43.39;102929.50;5175715;28;20970;-49
2022/03/07 10:08:24;;;;;;;9.75;7.25;;;;;;;10.48;43.19;102937.66;5169483;28;20429;-51
2022/03/07 10:11:07;;;;;;;10.93;7.63;;;;;;;10.18;43.32;102929.84;5172427;28;20863;-49
2022/03/07 10:13:51;;;;;;;10.95;7.68;;;;;;;9.89;43.16;102911.38;5166734;28;20851;-49
2022/03/07 10:16:24;;;;;;;9.82;8.35;;;;;;;9.69;42.98;102927.56;5173696;28;20576;-48
2022/03/07 10:18:57;;;;;;;11.38;8.57;;;;;;;9.43;43.21;102923.88;5177549;28;20914;-54
2022/03/07 10:21:30;;;;;;;12.05;8.38;;;;;;;9.28;43.04;102916.84;5170604;28;20852;-52
2022/03/07 10:24:02;;;;;;;10.63;7.43;;;;;;;9.22;42.84;102920.69;5165039;28;20405;-50
2022/03/07 10:26:36;;;;;;;10.30;8.30;;;;;;;9.22;42.70;102913.63;5169005;28;20417;-51
2022/03/07 10:29:08;;;;;;;11.52;8.50;;;;;;;9.28;42.56;102911.59;5145817;28;20886;-49
2022/03/07 10:31:45;;;;;;;10.27;8.77;;;;;;;9.23;42.55;102910.06;5169872;28;20527;-47
2022/03/07 10:34:19;;;;;;;11.52;8.43;;;;;;;9.06;42.53;102901.44;5165546;28;20429;-51
2022/03/07 10:36:53;;;;;;;11.43;8.43;;;;;;;9.07;42.38;102903.97;5171570;28;20414;-50
2022/03/07 10:39:27;;;;;;;10.40;8.18;;;;;;;8.99;42.45;102907.06;5170932;28;20417;-50
2022/03/07 10:41:59;;;;;;;10.52;8.00;;;;;;;8.99;42.38;102900.97;5168143;28;20845;-51
2022/03/07 10:44:35;;;;;;;12.00;9.35;;;;;;;9.00;42.38;102892.09;5168481;28;20423;-50
2022/03/07 10:47:10;;;;;;;12.47;9.03;;;;;;;8.97;42.31;102902.81;5166582;28;20413;-51
2022/03/07 10:49:53;;;;;;;9.47;8.47;;;;;;;8.96;42.33;102907.25;5164283;28;20416;-53
2022/03/07 10:52:41;;;;;;;12.70;8.98;;;;;;;8.98;42.23;102904.50;5171593;28;20429;-49
2022/03/07 10:55:14;;;;;;;11.10;9.00;;;;;;;9.03;41.99;102897.19;5163520;28;20445;-52
2022/03/07 10:57:46;;;;;;;8.88;7.93;;;;;;;8.53;42.18;102821.94;5163315;28;20423;-54
2022/03/07 11:00:21;;;;;;;13.32;8.88;;;;;;;8.95;42.13;102904.69;5169880;28;20527;-52
2022/03/07 11:02:54;;;;;;;8.85;7.13;;;;;;;8.85;42.08;102898.25;5167522;28;20509;-54
2022/03/07 11:05:28;;;;;;;9.10;7.60;;;;;;;8.86;42.08;102894.72;5171632;28;20425;-49
2022/03/07 11:08:00;;;;;;;10.68;8.20;;;;;;;8.76;42.08;102889.97;5171351;28;20433;-48
2022/03/07 11:10:33;;;;;;;11.13;8.80;;;;;;;8.77;42.33;102886.38;5175908;28;20420;-50
2022/03/07 11:13:07;;;;;;;12.80;9.00;;;;;;;8.76;42.12;102878.56;5167433;28;20913;-50
2022/03/07 11:15:40;;;;;;;11.60;8.80;;;;;;;8.73;42.28;102874.34;5168061;28;20430;-51
2022/03/07 11:18:14;;;;;;;9.65;8.48;;;;;;;8.75;41.92;102875.06;5170770;28;20542;-49
2022/03/07 11:20:48;;;;;;;12.83;8.60;;;;;;;8.80;41.99;102879.25;5169568;28;20504;-47
2022/03/07 11:23:21;;;;;;;10.82;8.20;;;;;;;8.70;41.93;102856.06;5166060;28;20428;-52
2022/03/07 11:25:56;;;;;;;11.43;9.13;;;;;;;8.92;41.83;102854.78;5161880;28;20496;-50
2022/03/07 11:28:31;;;;;;;11.20;8.27;;;;;;;8.90;41.88;102861.97;5164557;28;20507;-50
2022/03/07 11:31:03;;;;;;;11.18;8.13;;;;;;;8.81;41.98;102860.69;5165364;28;20494;-52
2022/03/07 11:33:37;;;;;;;9.82;8.68;;;;;;;8.39;41.82;102799.00;5165762;28;20404;-53
2022/03/07 11:36:21;;;;;;;10.43;8.60;;;;;;;8.70;41.76;102858.72;5167922;28;20433;-53
2022/03/07 11:38:56;;;;;;;9.45;7.30;;;;;;;8.80;41.74;102858.19;5161484;28;20416;-49
2022/03/07 11:41:32;;;;;;;9.95;7.90;;;;;;;8.74;41.81;102847.03;5163023;28;20482;-51
2022/03/07 11:44:09;;;;;;;9.73;8.37;;;;;;;8.73;41.97;102858.53;5168698;28;20432;-51
2022/03/07 11:46:45;;;;;;;11.10;7.95;;;;;;;8.52;41.81;102812.34;5170741;28;20791;-47
2022/03/07 11:49:26;;;;;;;10.35;7.55;;;;;;;8.77;42.05;102841.59;5168803;28;20852;-47
2022/03/07 11:52:03;;;;;;;11.53;8.97;;;;;;;8.59;42.02;102812.84;5170626;28;20436;-52